Flight Track Log - Related Links

Times and Time Zones

All times are in EDT time to prevent confusion due to time zone crossing. See the SLI2335 flight status page for this flight to view local times or setup timezone preferences in your user account.

Time Position Orientation Groundspeed Altitude Reporting Facility
EDT Latitude Longitude Course Direction KTS MPH feet Rate Location/Type
Sun 07:36:00 PM 29.0810 -110.7970 94° East  Level Estimated
Sun 07:37:00 PM 29.0760 -110.7134 94° East  Level Estimated
Sun 07:38:00 PM 29.0709 -110.6298 94° East  Level Estimated
Sun 07:39:00 PM 29.0657 -110.5462 94° East  Level Estimated
Sun 07:40:00 PM 29.0605 -110.4627 94° East  Level Estimated
Sun 07:41:00 PM 29.0552 -110.3791 94° East  Level Estimated
Sun 07:42:00 PM 29.0499 -110.2955 94° East  Level Estimated
Sun 07:43:00 PM 29.0445 -110.2120 94° East  Level Estimated
Sun 07:44:00 PM 29.0391 -110.1284 94° East  Level Estimated
Sun 07:45:00 PM 29.0337 -110.0449 94° East  Level Estimated
Sun 07:46:00 PM 29.0281 -109.9614 94° East  Level Estimated
Sun 07:47:00 PM 29.0226 -109.8779 94° East  Level Estimated
Sun 07:48:00 PM 29.0170 -109.7944 94° East  Level Estimated
Sun 07:49:00 PM 29.0113 -109.7109 94° East  Level Estimated
Sun 07:50:00 PM 29.0056 -109.6274 94° East  Level Estimated
Sun 07:51:00 PM 28.9998 -109.5439 95° East  Level Estimated
Sun 07:52:00 PM 28.9939 -109.4605 95° East  Level Estimated
Sun 07:53:00 PM 28.9881 -109.3770 95° East  Level Estimated
Sun 07:54:00 PM 28.9821 -109.2935 95° East  Level Estimated
Sun 07:55:00 PM 28.9762 -109.2101 95° East  Level Estimated
Sun 07:56:00 PM 28.9701 -109.1267 95° East  Level Estimated
Sun 07:57:00 PM 28.9640 -109.0433 95° East  Level Estimated
Sun 07:58:00 PM 28.9579 -108.9598 95° East  Level Estimated
Sun 07:59:00 PM 28.9517 -108.8764 95° East  Level Estimated
Sun 08:00:00 PM 28.9455 -108.7931 95° East  Level Estimated
Sun 08:01:00 PM 28.9392 -108.7097 95° East  Level Estimated
Sun 08:02:00 PM 28.9328 -108.6263 95° East  Level Estimated
Sun 08:03:00 PM 28.9264 -108.5430 95° East  Level Estimated
Sun 08:04:00 PM 28.9200 -108.4596 95° East  Level Estimated
Sun 08:05:00 PM 28.9135 -108.3763 95° East  Level Estimated
Sun 08:06:00 PM 28.9069 -108.2929 95° East  Level Estimated
Sun 08:07:00 PM 28.9003 -108.2096 95° East  Level Estimated
Sun 08:08:00 PM 28.8937 -108.1263 95° East  Level Estimated
Sun 08:09:00 PM 28.8870 -108.0430 95° East  Level Estimated
Sun 08:10:00 PM 28.8802 -107.9597 95° East  Level Estimated
Sun 08:11:00 PM 28.8734 -107.8764 95° East  Level Estimated
Sun 08:12:00 PM 28.8666 -107.7932 95° East  Level Estimated
Sun 08:13:00 PM 28.8597 -107.7099 95° East  Level Estimated
Sun 08:14:00 PM 28.8527 -107.6267 95° East  Level Estimated
Sun 08:15:00 PM 28.8457 -107.5435 95° East  Level Estimated
Sun 08:16:00 PM 28.8386 -107.4603 96° East  Level Estimated
Sun 08:17:00 PM 28.8315 -107.3770 96° East  Level Estimated
Sun 08:18:00 PM 28.8244 -107.2938 96° East  Level Estimated
Sun 08:19:00 PM 28.8172 -107.2107 96° East  Level Estimated
Sun 08:20:00 PM 28.8099 -107.1275 96° East  Level Estimated
Sun 08:21:00 PM 28.8026 -107.0443 96° East  Level Estimated
Sun 08:22:00 PM 28.7952 -106.9612 96° East  Level Estimated
Sun 08:23:00 PM 28.7878 -106.8780 96° East  Level Estimated
Sun 08:24:00 PM 28.7803 -106.7949 96° East  Level Estimated
Sun 08:25:00 PM 28.7728 -106.7118 96° East  Level Estimated
Sun 08:26:00 PM 28.7652 -106.6287 96° East  Level Estimated
Sun 08:27:00 PM 28.7576 -106.5456 96° East  Level Estimated
Sun 08:28:00 PM 28.7499 -106.4625 96° East  Level Estimated
Sun 08:29:00 PM 28.7422 -106.3795 96° East  Level Estimated
Sun 08:30:00 PM 28.7344 -106.2964 96° East  Level Estimated
Sun 08:31:00 PM 28.7266 -106.2134 96° East  Level Estimated
Sun 08:32:00 PM 28.7188 -106.1303 96° East  Level Estimated
Sun 08:33:00 PM 28.7108 -106.0473 96° East  Level Estimated

Login

Don't have an account? Register now (free) for customized features, flight alerts, and more!